sensor_id;sensor_type;location;lat;lon;timestamp;P1;durP1;ratioP1;P2;durP2;ratioP2
65552;SDS011;72126;51.560;14.368;2023-10-31T00:02:18;1.87;;;1.40;;
65552;SDS011;72126;51.560;14.368;2023-10-31T00:04:43;1.67;;;1.38;;
65552;SDS011;72126;51.560;14.368;2023-10-31T00:07:09;2.33;;;1.60;;
65552;SDS011;72126;51.560;14.368;2023-10-31T00:09:34;1.73;;;1.60;;
65552;SDS011;72126;51.560;14.368;2023-10-31T00:11:59;2.10;;;1.43;;
65552;SDS011;72126;51.560;14.368;2023-10-31T00:14:24;2.17;;;1.40;;
65552;SDS011;72126;51.560;14.368;2023-10-31T00:16:50;2.53;;;1.60;;
65552;SDS011;72126;51.560;14.368;2023-10-31T00:19:15;1.50;;;1.37;;
65552;SDS011;72126;51.560;14.368;2023-10-31T00:21:40;3.70;;;1.50;;
65552;SDS011;72126;51.560;14.368;2023-10-31T00:24:05;1.67;;;1.30;;
65552;SDS011;72126;51.560;14.368;2023-10-31T00:26:31;2.20;;;1.60;;
65552;SDS011;72126;51.560;14.368;2023-10-31T00:28:56;2.50;;;1.77;;
65552;SDS011;72126;51.560;14.368;2023-10-31T00:31:21;3.00;;;1.53;;
65552;SDS011;72126;51.560;14.368;2023-10-31T00:33:46;1.60;;;1.50;;
65552;SDS011;72126;51.560;14.368;2023-10-31T00:36:12;2.20;;;1.50;;
65552;SDS011;72126;51.560;14.368;2023-10-31T00:38:37;1.60;;;1.50;;
65552;SDS011;72126;51.560;14.368;2023-10-31T00:41:02;2.20;;;1.50;;
65552;SDS011;72126;51.560;14.368;2023-10-31T00:43:27;1.92;;;1.42;;
65552;SDS011;72126;51.560;14.368;2023-10-31T00:45:53;2.10;;;1.40;;
65552;SDS011;72126;51.560;14.368;2023-10-31T00:48:18;2.73;;;1.60;;
65552;SDS011;72126;51.560;14.368;2023-10-31T00:50:43;1.90;;;1.47;;
65552;SDS011;72126;51.560;14.368;2023-10-31T00:53:08;1.90;;;1.50;;
65552;SDS011;72126;51.560;14.368;2023-10-31T00:55:33;2.60;;;1.70;;
65552;SDS011;72126;51.560;14.368;2023-10-31T00:57:59;1.90;;;1.70;;
65552;SDS011;72126;51.560;14.368;2023-10-31T01:00:27;2.15;;;1.70;;
65552;SDS011;72126;51.560;14.368;2023-10-31T01:02:52;2.35;;;1.70;;
65552;SDS011;72126;51.560;14.368;2023-10-31T01:05:17;2.00;;;1.50;;
65552;SDS011;72126;51.560;14.368;2023-10-31T01:07:43;1.90;;;1.60;;
65552;SDS011;72126;51.560;14.368;2023-10-31T01:10:08;2.23;;;1.60;;
65552;SDS011;72126;51.560;14.368;2023-10-31T01:12:33;2.40;;;1.70;;
65552;SDS011;72126;51.560;14.368;2023-10-31T01:15:02;2.43;;;1.40;;
65552;SDS011;72126;51.560;14.368;2023-10-31T01:17:27;1.70;;;1.60;;
65552;SDS011;72126;51.560;14.368;2023-10-31T01:19:52;1.77;;;1.43;;
65552;SDS011;72126;51.560;14.368;2023-10-31T01:22:17;2.42;;;1.55;;
65552;SDS011;72126;51.560;14.368;2023-10-31T01:24:42;1.53;;;1.40;;
65552;SDS011;72126;51.560;14.368;2023-10-31T01:27:08;1.90;;;1.40;;
65552;SDS011;72126;51.560;14.368;2023-10-31T01:29:33;2.33;;;1.50;;
65552;SDS011;72126;51.560;14.368;2023-10-31T01:31:58;2.73;;;1.60;;
65552;SDS011;72126;51.560;14.368;2023-10-31T01:34:23;1.70;;;1.40;;
65552;SDS011;72126;51.560;14.368;2023-10-31T01:36:48;1.70;;;1.40;;
65552;SDS011;72126;51.560;14.368;2023-10-31T01:39:14;1.95;;;1.42;;
65552;SDS011;72126;51.560;14.368;2023-10-31T01:41:42;2.50;;;1.67;;
65552;SDS011;72126;51.560;14.368;2023-10-31T01:44:08;2.25;;;1.50;;
65552;SDS011;72126;51.560;14.368;2023-10-31T01:46:33;2.08;;;1.70;;
65552;SDS011;72126;51.560;14.368;2023-10-31T01:48:58;2.50;;;1.57;;
65552;SDS011;72126;51.560;14.368;2023-10-31T01:51:24;1.70;;;1.45;;
65552;SDS011;72126;51.560;14.368;2023-10-31T01:53:50;1.73;;;1.50;;
65552;SDS011;72126;51.560;14.368;2023-10-31T01:56:15;2.15;;;1.50;;
65552;SDS011;72126;51.560;14.368;2023-10-31T01:58:41;3.28;;;1.40;;
65552;SDS011;72126;51.560;14.368;2023-10-31T02:01:06;2.53;;;1.33;;
65552;SDS011;72126;51.560;14.368;2023-10-31T02:03:34;1.65;;;1.42;;
65552;SDS011;72126;51.560;14.368;2023-10-31T02:05:59;2.07;;;1.60;;
65552;SDS011;72126;51.560;14.368;2023-10-31T02:08:24;2.73;;;1.80;;
65552;SDS011;72126;51.560;14.368;2023-10-31T02:10:50;2.03;;;1.58;;
65552;SDS011;72126;51.560;14.368;2023-10-31T02:13:16;1.70;;;1.45;;
65552;SDS011;72126;51.560;14.368;2023-10-31T02:15:43;2.15;;;1.70;;
65552;SDS011;72126;51.560;14.368;2023-10-31T02:18:09;2.80;;;1.70;;
65552;SDS011;72126;51.560;14.368;2023-10-31T02:20:35;1.98;;;1.50;;
65552;SDS011;72126;51.560;14.368;2023-10-31T02:23:01;3.13;;;1.63;;
65552;SDS011;72126;51.560;14.368;2023-10-31T02:25:28;2.38;;;1.60;;
65552;SDS011;72126;51.560;14.368;2023-10-31T02:27:53;1.57;;;1.43;;
65552;SDS011;72126;51.560;14.368;2023-10-31T02:30:18;1.73;;;1.50;;
65552;SDS011;72126;51.560;14.368;2023-10-31T02:32:43;1.85;;;1.40;;
65552;SDS011;72126;51.560;14.368;2023-10-31T02:35:09;1.80;;;1.60;;
65552;SDS011;72126;51.560;14.368;2023-10-31T02:37:34;2.70;;;1.60;;
65552;SDS011;72126;51.560;14.368;2023-10-31T02:39:59;1.70;;;1.40;;
65552;SDS011;72126;51.560;14.368;2023-10-31T02:42:25;1.70;;;1.42;;
65552;SDS011;72126;51.560;14.368;2023-10-31T02:44:50;2.33;;;1.70;;
65552;SDS011;72126;51.560;14.368;2023-10-31T02:47:15;1.80;;;1.38;;
65552;SDS011;72126;51.560;14.368;2023-10-31T02:49:40;2.03;;;1.50;;
65552;SDS011;72126;51.560;14.368;2023-10-31T02:52:06;2.23;;;1.60;;
65552;SDS011;72126;51.560;14.368;2023-10-31T02:54:31;2.13;;;1.40;;
65552;SDS011;72126;51.560;14.368;2023-10-31T02:56:57;1.90;;;1.50;;
65552;SDS011;72126;51.560;14.368;2023-10-31T02:59:22;1.70;;;1.50;;
65552;SDS011;72126;51.560;14.368;2023-10-31T03:01:47;1.20;;;1.10;;
65552;SDS011;72126;51.560;14.368;2023-10-31T03:04:13;2.27;;;1.70;;
65552;SDS011;72126;51.560;14.368;2023-10-31T03:06:38;2.13;;;1.40;;
65552;SDS011;72126;51.560;14.368;2023-10-31T03:09:03;2.23;;;1.50;;
65552;SDS011;72126;51.560;14.368;2023-10-31T03:11:28;1.60;;;1.50;;
65552;SDS011;72126;51.560;14.368;2023-10-31T03:13:53;2.53;;;1.70;;
65552;SDS011;72126;51.560;14.368;2023-10-31T03:16:19;2.25;;;1.60;;
65552;SDS011;72126;51.560;14.368;2023-10-31T03:18:45;2.53;;;1.83;;
65552;SDS011;72126;51.560;14.368;2023-10-31T03:21:11;1.75;;;1.38;;
65552;SDS011;72126;51.560;14.368;2023-10-31T03:23:36;1.60;;;1.33;;
65552;SDS011;72126;51.560;14.368;2023-10-31T03:26:01;2.77;;;1.70;;
65552;SDS011;72126;51.560;14.368;2023-10-31T03:28:26;1.55;;;1.42;;
65552;SDS011;72126;51.560;14.368;2023-10-31T03:30:51;1.50;;;1.37;;
65552;SDS011;72126;51.560;14.368;2023-10-31T03:33:17;2.07;;;1.40;;
65552;SDS011;72126;51.560;14.368;2023-10-31T03:35:42;1.73;;;1.40;;
65552;SDS011;72126;51.560;14.368;2023-10-31T03:38:08;2.65;;;1.60;;
65552;SDS011;72126;51.560;14.368;2023-10-31T03:40:33;2.20;;;1.67;;
65552;SDS011;72126;51.560;14.368;2023-10-31T03:42:58;2.83;;;1.50;;
65552;SDS011;72126;51.560;14.368;2023-10-31T03:45:23;2.33;;;1.60;;
65552;SDS011;72126;51.560;14.368;2023-10-31T03:47:48;2.50;;;1.60;;
65552;SDS011;72126;51.560;14.368;2023-10-31T03:50:14;1.87;;;1.50;;
65552;SDS011;72126;51.560;14.368;2023-10-31T03:52:39;2.00;;;1.60;;
65552;SDS011;72126;51.560;14.368;2023-10-31T03:55:04;1.73;;;1.30;;
65552;SDS011;72126;51.560;14.368;2023-10-31T03:57:30;2.03;;;1.60;;
65552;SDS011;72126;51.560;14.368;2023-10-31T03:59:55;2.23;;;1.60;;
65552;SDS011;72126;51.560;14.368;2023-10-31T04:02:20;3.43;;;1.57;;
65552;SDS011;72126;51.560;14.368;2023-10-31T04:04:45;1.83;;;1.60;;
65552;SDS011;72126;51.560;14.368;2023-10-31T04:07:11;3.83;;;1.70;;
65552;SDS011;72126;51.560;14.368;2023-10-31T04:09:36;1.95;;;1.65;;
65552;SDS011;72126;51.560;14.368;2023-10-31T04:12:01;1.90;;;1.70;;
65552;SDS011;72126;51.560;14.368;2023-10-31T04:14:26;2.92;;;1.80;;
65552;SDS011;72126;51.560;14.368;2023-10-31T04:16:51;1.87;;;1.40;;
65552;SDS011;72126;51.560;14.368;2023-10-31T04:19:17;1.70;;;1.57;;
65552;SDS011;72126;51.560;14.368;2023-10-31T04:21:42;2.33;;;1.60;;
65552;SDS011;72126;51.560;14.368;2023-10-31T04:24:07;2.17;;;1.70;;
65552;SDS011;72126;51.560;14.368;2023-10-31T04:26:32;2.70;;;1.70;;
65552;SDS011;72126;51.560;14.368;2023-10-31T04:28:57;3.13;;;1.67;;
65552;SDS011;72126;51.560;14.368;2023-10-31T04:31:23;1.63;;;1.50;;
65552;SDS011;72126;51.560;14.368;2023-10-31T04:33:48;1.93;;;1.53;;
65552;SDS011;72126;51.560;14.368;2023-10-31T04:36:13;2.10;;;1.70;;
65552;SDS011;72126;51.560;14.368;2023-10-31T04:38:38;1.67;;;1.42;;
65552;SDS011;72126;51.560;14.368;2023-10-31T04:41:03;2.30;;;1.53;;
65552;SDS011;72126;51.560;14.368;2023-10-31T04:43:29;2.00;;;1.60;;
65552;SDS011;72126;51.560;14.368;2023-10-31T04:45:54;1.93;;;1.70;;
65552;SDS011;72126;51.560;14.368;2023-10-31T04:48:19;1.93;;;1.50;;
65552;SDS011;72126;51.560;14.368;2023-10-31T04:50:44;3.00;;;1.52;;
65552;SDS011;72126;51.560;14.368;2023-10-31T04:53:09;1.88;;;1.55;;
65552;SDS011;72126;51.560;14.368;2023-10-31T04:55:35;1.97;;;1.70;;
65552;SDS011;72126;51.560;14.368;2023-10-31T04:58:00;1.50;;;1.40;;
65552;SDS011;72126;51.560;14.368;2023-10-31T05:00:25;2.38;;;1.80;;
65552;SDS011;72126;51.560;14.368;2023-10-31T05:02:50;2.23;;;1.70;;
65552;SDS011;72126;51.560;14.368;2023-10-31T05:05:15;1.77;;;1.50;;
65552;SDS011;72126;51.560;14.368;2023-10-31T05:07:41;1.97;;;1.87;;
65552;SDS011;72126;51.560;14.368;2023-10-31T05:10:06;1.90;;;1.50;;
65552;SDS011;72126;51.560;14.368;2023-10-31T05:12:32;3.25;;;1.80;;
65552;SDS011;72126;51.560;14.368;2023-10-31T05:14:57;2.08;;;1.80;;
65552;SDS011;72126;51.560;14.368;2023-10-31T05:17:22;2.67;;;1.90;;
65552;SDS011;72126;51.560;14.368;2023-10-31T05:19:47;2.20;;;1.80;;
65552;SDS011;72126;51.560;14.368;2023-10-31T05:22:12;2.97;;;1.53;;
65552;SDS011;72126;51.560;14.368;2023-10-31T05:24:38;2.27;;;1.80;;
65552;SDS011;72126;51.560;14.368;2023-10-31T05:27:03;2.53;;;1.90;;
65552;SDS011;72126;51.560;14.368;2023-10-31T05:29:29;1.63;;;1.50;;
65552;SDS011;72126;51.560;14.368;2023-10-31T05:31:54;3.50;;;1.80;;
65552;SDS011;72126;51.560;14.368;2023-10-31T05:34:19;2.03;;;1.60;;
65552;SDS011;72126;51.560;14.368;2023-10-31T05:36:44;2.30;;;1.73;;
65552;SDS011;72126;51.560;14.368;2023-10-31T05:39:09;2.60;;;1.80;;
65552;SDS011;72126;51.560;14.368;2023-10-31T05:41:35;3.10;;;1.80;;
65552;SDS011;72126;51.560;14.368;2023-10-31T05:44:00;2.47;;;1.67;;
65552;SDS011;72126;51.560;14.368;2023-10-31T05:46:25;2.08;;;1.80;;
65552;SDS011;72126;51.560;14.368;2023-10-31T05:48:50;2.40;;;1.70;;
65552;SDS011;72126;51.560;14.368;2023-10-31T05:51:17;1.63;;;1.53;;
65552;SDS011;72126;51.560;14.368;2023-10-31T05:53:44;1.60;;;1.50;;
65552;SDS011;72126;51.560;14.368;2023-10-31T05:56:11;2.13;;;1.90;;
65552;SDS011;72126;51.560;14.368;2023-10-31T05:58:37;2.05;;;1.73;;
65552;SDS011;72126;51.560;14.368;2023-10-31T06:01:03;2.40;;;1.70;;
65552;SDS011;72126;51.560;14.368;2023-10-31T06:03:28;2.03;;;1.77;;
65552;SDS011;72126;51.560;14.368;2023-10-31T06:05:53;1.50;;;1.40;;
65552;SDS011;72126;51.560;14.368;2023-10-31T06:08:19;2.10;;;1.70;;
65552;SDS011;72126;51.560;14.368;2023-10-31T06:10:44;2.60;;;1.60;;
65552;SDS011;72126;51.560;14.368;2023-10-31T06:13:09;1.83;;;1.50;;
65552;SDS011;72126;51.560;14.368;2023-10-31T06:15:34;1.87;;;1.40;;
65552;SDS011;72126;51.560;14.368;2023-10-31T06:18:00;1.90;;;1.60;;
65552;SDS011;72126;51.560;14.368;2023-10-31T06:20:25;1.77;;;1.63;;
65552;SDS011;72126;51.560;14.368;2023-10-31T06:22:51;1.85;;;1.63;;
65552;SDS011;72126;51.560;14.368;2023-10-31T06:25:16;2.90;;;1.70;;
65552;SDS011;72126;51.560;14.368;2023-10-31T06:27:41;2.10;;;1.60;;
65552;SDS011;72126;51.560;14.368;2023-10-31T06:30:06;2.23;;;1.87;;
65552;SDS011;72126;51.560;14.368;2023-10-31T06:32:32;1.90;;;1.52;;
65552;SDS011;72126;51.560;14.368;2023-10-31T06:34:57;2.00;;;1.53;;
65552;SDS011;72126;51.560;14.368;2023-10-31T06:37:22;1.70;;;1.57;;
65552;SDS011;72126;51.560;14.368;2023-10-31T06:39:48;1.77;;;1.50;;
65552;SDS011;72126;51.560;14.368;2023-10-31T06:42:13;2.30;;;1.60;;
65552;SDS011;72126;51.560;14.368;2023-10-31T06:44:38;1.70;;;1.60;;
65552;SDS011;72126;51.560;14.368;2023-10-31T06:47:03;2.00;;;1.40;;
65552;SDS011;72126;51.560;14.368;2023-10-31T06:49:29;1.60;;;1.50;;
65552;SDS011;72126;51.560;14.368;2023-10-31T06:51:54;2.50;;;1.70;;
65552;SDS011;72126;51.560;14.368;2023-10-31T06:54:19;2.10;;;1.63;;
65552;SDS011;72126;51.560;14.368;2023-10-31T06:56:44;2.43;;;1.70;;
65552;SDS011;72126;51.560;14.368;2023-10-31T06:59:09;1.77;;;1.60;;
65552;SDS011;72126;51.560;14.368;2023-10-31T07:01:34;1.93;;;1.57;;
65552;SDS011;72126;51.560;14.368;2023-10-31T07:04:00;1.90;;;1.70;;
65552;SDS011;72126;51.560;14.368;2023-10-31T07:06:25;1.60;;;1.50;;
65552;SDS011;72126;51.560;14.368;2023-10-31T07:08:51;1.90;;;1.60;;
65552;SDS011;72126;51.560;14.368;2023-10-31T07:11:16;3.03;;;1.70;;
65552;SDS011;72126;51.560;14.368;2023-10-31T07:13:41;1.70;;;1.53;;
65552;SDS011;72126;51.560;14.368;2023-10-31T07:16:06;3.33;;;1.70;;
65552;SDS011;72126;51.560;14.368;2023-10-31T07:18:32;1.85;;;1.40;;
65552;SDS011;72126;51.560;14.368;2023-10-31T07:20:57;1.77;;;1.50;;
65552;SDS011;72126;51.560;14.368;2023-10-31T07:23:22;1.80;;;1.50;;
65552;SDS011;72126;51.560;14.368;2023-10-31T07:25:47;1.90;;;1.50;;
65552;SDS011;72126;51.560;14.368;2023-10-31T07:28:12;2.23;;;1.40;;
65552;SDS011;72126;51.560;14.368;2023-10-31T07:30:38;1.93;;;1.50;;
65552;SDS011;72126;51.560;14.368;2023-10-31T07:33:03;1.50;;;1.40;;
65552;SDS011;72126;51.560;14.368;2023-10-31T07:35:31;2.40;;;1.60;;
65552;SDS011;72126;51.560;14.368;2023-10-31T07:37:56;1.80;;;1.50;;
65552;SDS011;72126;51.560;14.368;2023-10-31T07:40:21;1.83;;;1.60;;
65552;SDS011;72126;51.560;14.368;2023-10-31T07:42:47;1.70;;;1.50;;
65552;SDS011;72126;51.560;14.368;2023-10-31T07:45:12;1.45;;;1.35;;
65552;SDS011;72126;51.560;14.368;2023-10-31T07:47:37;1.23;;;1.13;;
65552;SDS011;72126;51.560;14.368;2023-10-31T07:50:02;1.67;;;1.30;;
65552;SDS011;72126;51.560;14.368;2023-10-31T07:52:28;1.85;;;1.55;;
65552;SDS011;72126;51.560;14.368;2023-10-31T07:54:53;1.57;;;1.47;;
65552;SDS011;72126;51.560;14.368;2023-10-31T07:57:18;2.00;;;1.40;;
65552;SDS011;72126;51.560;14.368;2023-10-31T07:59:43;1.40;;;1.30;;
65552;SDS011;72126;51.560;14.368;2023-10-31T08:02:09;2.30;;;1.57;;
65552;SDS011;72126;51.560;14.368;2023-10-31T08:04:34;1.50;;;1.40;;
65552;SDS011;72126;51.560;14.368;2023-10-31T08:06:59;1.70;;;1.47;;
65552;SDS011;72126;51.560;14.368;2023-10-31T08:09:24;1.57;;;1.33;;
65552;SDS011;72126;51.560;14.368;2023-10-31T08:11:49;1.93;;;1.57;;
65552;SDS011;72126;51.560;14.368;2023-10-31T08:14:15;1.87;;;1.40;;
65552;SDS011;72126;51.560;14.368;2023-10-31T08:16:43;1.70;;;1.50;;
65552;SDS011;72126;51.560;14.368;2023-10-31T08:19:08;2.15;;;1.45;;
65552;SDS011;72126;51.560;14.368;2023-10-31T08:21:34;1.60;;;1.30;;
65552;SDS011;72126;51.560;14.368;2023-10-31T08:23:59;1.77;;;1.40;;
65552;SDS011;72126;51.560;14.368;2023-10-31T08:26:25;1.35;;;1.25;;
65552;SDS011;72126;51.560;14.368;2023-10-31T08:28:50;2.07;;;1.37;;
65552;SDS011;72126;51.560;14.368;2023-10-31T08:31:15;1.53;;;1.40;;
65552;SDS011;72126;51.560;14.368;2023-10-31T08:33:40;1.83;;;1.40;;
65552;SDS011;72126;51.560;14.368;2023-10-31T08:36:06;1.67;;;1.27;;
65552;SDS011;72126;51.560;14.368;2023-10-31T08:38:31;1.60;;;1.40;;
65552;SDS011;72126;51.560;14.368;2023-10-31T08:40:56;1.40;;;1.30;;
65552;SDS011;72126;51.560;14.368;2023-10-31T08:43:23;1.70;;;1.27;;
65552;SDS011;72126;51.560;14.368;2023-10-31T08:45:48;1.53;;;1.37;;
65552;SDS011;72126;51.560;14.368;2023-10-31T08:48:13;1.50;;;1.30;;
65552;SDS011;72126;51.560;14.368;2023-10-31T08:50:39;1.73;;;1.50;;
65552;SDS011;72126;51.560;14.368;2023-10-31T08:53:04;1.67;;;1.30;;
65552;SDS011;72126;51.560;14.368;2023-10-31T08:55:29;1.50;;;1.40;;
65552;SDS011;72126;51.560;14.368;2023-10-31T08:57:55;1.93;;;1.50;;
65552;SDS011;72126;51.560;14.368;2023-10-31T09:00:20;1.27;;;1.17;;
65552;SDS011;72126;51.560;14.368;2023-10-31T09:02:45;1.40;;;1.30;;
65552;SDS011;72126;51.560;14.368;2023-10-31T09:05:11;1.60;;;1.40;;
65552;SDS011;72126;51.560;14.368;2023-10-31T09:07:36;1.70;;;1.37;;
65552;SDS011;72126;51.560;14.368;2023-10-31T09:10:01;1.63;;;1.40;;
65552;SDS011;72126;51.560;14.368;2023-10-31T09:12:26;1.35;;;1.25;;
65552;SDS011;72126;51.560;14.368;2023-10-31T09:14:52;1.53;;;1.30;;
65552;SDS011;72126;51.560;14.368;2023-10-31T09:17:17;1.53;;;1.43;;
65552;SDS011;72126;51.560;14.368;2023-10-31T09:19:42;2.17;;;1.30;;
65552;SDS011;72126;51.560;14.368;2023-10-31T09:22:07;1.40;;;1.30;;
65552;SDS011;72126;51.560;14.368;2023-10-31T09:24:33;1.30;;;1.20;;
65552;SDS011;72126;51.560;14.368;2023-10-31T09:26:58;1.13;;;1.02;;
65552;SDS011;72126;51.560;14.368;2023-10-31T09:29:23;1.40;;;1.30;;
65552;SDS011;72126;51.560;14.368;2023-10-31T09:31:49;1.30;;;1.20;;
65552;SDS011;72126;51.560;14.368;2023-10-31T09:34:14;1.30;;;1.20;;
65552;SDS011;72126;51.560;14.368;2023-10-31T09:36:39;1.20;;;1.10;;
65552;SDS011;72126;51.560;14.368;2023-10-31T09:39:04;1.20;;;1.10;;
65552;SDS011;72126;51.560;14.368;2023-10-31T09:41:30;1.30;;;1.20;;
65552;SDS011;72126;51.560;14.368;2023-10-31T09:43:55;1.20;;;1.10;;
65552;SDS011;72126;51.560;14.368;2023-10-31T09:46:21;1.30;;;1.20;;
65552;SDS011;72126;51.560;14.368;2023-10-31T09:48:47;1.33;;;1.23;;
65552;SDS011;72126;51.560;14.368;2023-10-31T09:51:14;1.35;;;1.25;;
65552;SDS011;72126;51.560;14.368;2023-10-31T09:53:39;1.10;;;1.00;;
65552;SDS011;72126;51.560;14.368;2023-10-31T09:56:06;1.20;;;1.10;;
65552;SDS011;72126;51.560;14.368;2023-10-31T09:58:32;1.33;;;1.23;;
65552;SDS011;72126;51.560;14.368;2023-10-31T10:00:58;1.20;;;1.10;;
65552;SDS011;72126;51.560;14.368;2023-10-31T10:03:23;1.20;;;1.10;;
65552;SDS011;72126;51.560;14.368;2023-10-31T10:05:49;1.45;;;1.10;;
65552;SDS011;72126;51.560;14.368;2023-10-31T10:08:14;1.33;;;1.20;;
65552;SDS011;72126;51.560;14.368;2023-10-31T10:10:40;1.48;;;1.10;;
65552;SDS011;72126;51.560;14.368;2023-10-31T10:13:05;1.27;;;1.17;;
65552;SDS011;72126;51.560;14.368;2023-10-31T10:15:30;1.10;;;1.00;;
65552;SDS011;72126;51.560;14.368;2023-10-31T10:17:55;1.33;;;1.10;;
65552;SDS011;72126;51.560;14.368;2023-10-31T10:20:21;1.20;;;1.00;;
65552;SDS011;72126;51.560;14.368;2023-10-31T10:22:47;1.20;;;1.10;;
65552;SDS011;72126;51.560;14.368;2023-10-31T10:25:13;1.05;;;0.90;;
65552;SDS011;72126;51.560;14.368;2023-10-31T10:27:41;1.17;;;1.00;;
65552;SDS011;72126;51.560;14.368;2023-10-31T10:30:10;1.13;;;1.02;;
65552;SDS011;72126;51.560;14.368;2023-10-31T10:32:37;1.20;;;1.10;;
65552;SDS011;72126;51.560;14.368;2023-10-31T10:35:06;1.65;;;1.00;;
65552;SDS011;72126;51.560;14.368;2023-10-31T10:37:32;0.90;;;0.90;;
65552;SDS011;72126;51.560;14.368;2023-10-31T10:40:01;1.10;;;1.00;;
65552;SDS011;72126;51.560;14.368;2023-10-31T10:42:32;1.05;;;1.02;;
65552;SDS011;72126;51.560;14.368;2023-10-31T10:45:03;0.68;;;0.68;;
65552;SDS011;72126;51.560;14.368;2023-10-31T10:47:31;1.02;;;1.00;;
65552;SDS011;72126;51.560;14.368;2023-10-31T10:50:00;0.90;;;0.90;;
65552;SDS011;72126;51.560;14.368;2023-10-31T10:52:38;0.95;;;0.80;;
65552;SDS011;72126;51.560;14.368;2023-10-31T10:55:12;0.93;;;0.80;;
65552;SDS011;72126;51.560;14.368;2023-10-31T10:57:48;1.00;;;0.90;;
65552;SDS011;72126;51.560;14.368;2023-10-31T11:00:20;1.00;;;0.90;;
65552;SDS011;72126;51.560;14.368;2023-10-31T11:02:45;1.02;;;0.93;;
65552;SDS011;72126;51.560;14.368;2023-10-31T11:05:11;0.80;;;0.80;;
65552;SDS011;72126;51.560;14.368;2023-10-31T11:07:39;1.00;;;0.90;;
65552;SDS011;72126;51.560;14.368;2023-10-31T11:10:05;0.80;;;0.80;;
65552;SDS011;72126;51.560;14.368;2023-10-31T11:12:30;1.08;;;0.98;;
65552;SDS011;72126;51.560;14.368;2023-10-31T11:14:57;1.67;;;0.95;;
65552;SDS011;72126;51.560;14.368;2023-10-31T11:17:24;1.08;;;0.90;;
65552;SDS011;72126;51.560;14.368;2023-10-31T11:19:52;0.90;;;0.80;;
65552;SDS011;72126;51.560;14.368;2023-10-31T11:22:20;1.35;;;0.82;;
65552;SDS011;72126;51.560;14.368;2023-10-31T11:24:45;0.80;;;0.80;;
65552;SDS011;72126;51.560;14.368;2023-10-31T11:27:10;0.88;;;0.88;;
65552;SDS011;72126;51.560;14.368;2023-10-31T11:29:36;0.70;;;0.70;;
65552;SDS011;72126;51.560;14.368;2023-10-31T11:32:02;0.82;;;0.82;;
65552;SDS011;72126;51.560;14.368;2023-10-31T11:34:28;0.85;;;0.82;;
65552;SDS011;72126;51.560;14.368;2023-10-31T11:37:17;0.82;;;0.82;;
65552;SDS011;72126;51.560;14.368;2023-10-31T11:39:44;0.70;;;0.70;;
65552;SDS011;72126;51.560;14.368;2023-10-31T11:42:37;0.77;;;0.77;;
65552;SDS011;72126;51.560;14.368;2023-10-31T11:45:02;0.70;;;0.70;;
65552;SDS011;72126;51.560;14.368;2023-10-31T11:47:44;0.60;;;0.60;;
65552;SDS011;72126;51.560;14.368;2023-10-31T11:50:13;0.80;;;0.80;;
65552;SDS011;72126;51.560;14.368;2023-10-31T11:52:39;0.60;;;0.60;;
65552;SDS011;72126;51.560;14.368;2023-10-31T11:55:05;0.68;;;0.68;;
65552;SDS011;72126;51.560;14.368;2023-10-31T11:57:34;0.80;;;0.80;;
65552;SDS011;72126;51.560;14.368;2023-10-31T12:00:00;0.60;;;0.60;;
65552;SDS011;72126;51.560;14.368;2023-10-31T12:02:25;0.60;;;0.60;;
65552;SDS011;72126;51.560;14.368;2023-10-31T12:04:50;0.70;;;0.70;;
65552;SDS011;72126;51.560;14.368;2023-10-31T12:07:15;0.63;;;0.63;;
65552;SDS011;72126;51.560;14.368;2023-10-31T12:09:47;0.80;;;0.80;;
65552;SDS011;72126;51.560;14.368;2023-10-31T12:12:13;0.73;;;0.73;;
65552;SDS011;72126;51.560;14.368;2023-10-31T12:14:38;0.60;;;0.60;;
65552;SDS011;72126;51.560;14.368;2023-10-31T12:17:04;0.73;;;0.70;;
65552;SDS011;72126;51.560;14.368;2023-10-31T12:19:30;0.98;;;0.80;;
65552;SDS011;72126;51.560;14.368;2023-10-31T12:21:55;0.70;;;0.70;;
65552;SDS011;72126;51.560;14.368;2023-10-31T12:24:20;0.55;;;0.55;;
65552;SDS011;72126;51.560;14.368;2023-10-31T12:26:45;0.93;;;0.80;;
65552;SDS011;72126;51.560;14.368;2023-10-31T12:31:44;0.70;;;0.70;;
65552;SDS011;72126;51.560;14.368;2023-10-31T12:34:11;0.90;;;0.70;;
65552;SDS011;72126;51.560;14.368;2023-10-31T12:36:37;0.70;;;0.70;;
65552;SDS011;72126;51.560;14.368;2023-10-31T12:39:04;0.70;;;0.70;;
65552;SDS011;72126;51.560;14.368;2023-10-31T12:41:32;0.80;;;0.75;;
65552;SDS011;72126;51.560;14.368;2023-10-31T12:44:00;0.80;;;0.80;;
65552;SDS011;72126;51.560;14.368;2023-10-31T12:48:52;0.85;;;0.82;;
65552;SDS011;72126;51.560;14.368;2023-10-31T12:51:17;1.23;;;0.73;;
65552;SDS011;72126;51.560;14.368;2023-10-31T12:53:42;0.80;;;0.80;;
65552;SDS011;72126;51.560;14.368;2023-10-31T12:56:34;0.85;;;0.73;;
65552;SDS011;72126;51.560;14.368;2023-10-31T12:59:01;0.68;;;0.68;;
65552;SDS011;72126;51.560;14.368;2023-10-31T13:01:26;0.80;;;0.80;;
65552;SDS011;72126;51.560;14.368;2023-10-31T13:03:51;0.95;;;0.80;;
65552;SDS011;72126;51.560;14.368;2023-10-31T13:06:17;0.70;;;0.70;;
65552;SDS011;72126;51.560;14.368;2023-10-31T13:08:45;1.23;;;0.80;;
65552;SDS011;72126;51.560;14.368;2023-10-31T13:11:10;0.70;;;0.70;;
65552;SDS011;72126;51.560;14.368;2023-10-31T13:13:35;0.70;;;0.70;;
65552;SDS011;72126;51.560;14.368;2023-10-31T13:16:01;1.17;;;0.70;;
65552;SDS011;72126;51.560;14.368;2023-10-31T13:18:26;0.70;;;0.70;;
65552;SDS011;72126;51.560;14.368;2023-10-31T13:20:51;0.70;;;0.70;;
65552;SDS011;72126;51.560;14.368;2023-10-31T13:23:16;0.67;;;0.67;;
65552;SDS011;72126;51.560;14.368;2023-10-31T13:25:41;0.70;;;0.70;;
65552;SDS011;72126;51.560;14.368;2023-10-31T13:28:07;0.50;;;0.50;;
65552;SDS011;72126;51.560;14.368;2023-10-31T13:30:32;0.70;;;0.70;;
65552;SDS011;72126;51.560;14.368;2023-10-31T13:32:57;0.70;;;0.70;;
65552;SDS011;72126;51.560;14.368;2023-10-31T13:35:22;0.70;;;0.70;;
65552;SDS011;72126;51.560;14.368;2023-10-31T13:37:47;0.73;;;0.70;;
65552;SDS011;72126;51.560;14.368;2023-10-31T13:40:12;0.70;;;0.70;;
65552;SDS011;72126;51.560;14.368;2023-10-31T13:42:38;1.00;;;0.70;;
65552;SDS011;72126;51.560;14.368;2023-10-31T13:45:03;0.70;;;0.70;;
65552;SDS011;72126;51.560;14.368;2023-10-31T13:49:58;0.65;;;0.65;;
65552;SDS011;72126;51.560;14.368;2023-10-31T13:52:23;0.70;;;0.70;;
65552;SDS011;72126;51.560;14.368;2023-10-31T13:54:48;0.60;;;0.60;;
65552;SDS011;72126;51.560;14.368;2023-10-31T13:57:14;1.70;;;0.60;;
65552;SDS011;72126;51.560;14.368;2023-10-31T13:59:39;0.67;;;0.67;;
65552;SDS011;72126;51.560;14.368;2023-10-31T14:02:04;0.70;;;0.70;;
65552;SDS011;72126;51.560;14.368;2023-10-31T14:04:30;0.73;;;0.73;;
65552;SDS011;72126;51.560;14.368;2023-10-31T14:06:55;0.60;;;0.60;;
65552;SDS011;72126;51.560;14.368;2023-10-31T14:09:21;0.70;;;0.70;;
65552;SDS011;72126;51.560;14.368;2023-10-31T14:11:46;0.73;;;0.70;;
65552;SDS011;72126;51.560;14.368;2023-10-31T14:14:11;0.70;;;0.70;;
65552;SDS011;72126;51.560;14.368;2023-10-31T14:16:37;0.80;;;0.80;;
65552;SDS011;72126;51.560;14.368;2023-10-31T14:19:02;0.60;;;0.60;;
65552;SDS011;72126;51.560;14.368;2023-10-31T14:21:27;0.70;;;0.70;;
65552;SDS011;72126;51.560;14.368;2023-10-31T14:23:53;0.93;;;0.70;;
65552;SDS011;72126;51.560;14.368;2023-10-31T14:26:19;0.60;;;0.60;;
65552;SDS011;72126;51.560;14.368;2023-10-31T14:28:45;0.70;;;0.70;;
65552;SDS011;72126;51.560;14.368;2023-10-31T14:31:10;0.70;;;0.70;;
65552;SDS011;72126;51.560;14.368;2023-10-31T14:33:35;0.70;;;0.70;;